Terminal Aerodrome Forecast
Issued by NWS Omaha/Valley, NE

Home | Current Version | Previous Version | Text Only | Print | Product List | Glossary On
Versions: 1 2 3 4 5 6 7 8 9 10 11 12 13 14 15 16 17 18 19 20 21 22 23 24 25 26 27 28 29 30 31 32 33 34 35 36 37 38 39
674
FTUS43 KOAX 241139
TAFLNK
TAF
KLNK 241139Z 2412/2512 05007KT 2SM -FZDZ BR OVC003
     FM241700 06008KT 1SM -FZDZSN OVC007
     FM241900 06008KT 1SM -SN OVC012
     FM242100 VRB03KT 4SM BR OVC015
     FM250100 29008KT 6SM BR SCT007 BKN040=

USA.gov is the U.S. government's official web portal to all federal, state and local government web resources and services.